Time;durP1;ratioP1;P1;durP2;ratioP2;P2;SDS_P1;SDS_P2;PMS_P1;PMS_P2;Temp;Humidity;BMP_temperature;BMP_pressure;BME280_temperature;BME280_humidity;BME280_pressure;Samples;Min_cycle;Max_cycle;Signal;HPM_P1;HPM_P2
2023/03/10 00:02:29;;;;;;;28.42;21.10;;;27.30;93.10;;;;;;5007169;28;20062;-49
2023/03/10 00:04:55;;;;;;;27.70;20.83;;;27.30;93.00;;;;;;5020844;28;20085;-55
2023/03/10 00:07:22;;;;;;;25.25;20.30;;;27.20;93.00;;;;;;5027763;28;20312;-54
2023/03/10 00:09:49;;;;;;;27.02;20.55;;;27.30;93.10;;;;;;5026896;28;20037;-53
2023/03/10 00:12:18;;;;;;;23.67;20.33;;;27.20;93.00;;;;;;5026816;28;20036;-55
2023/03/10 00:14:45;;;;;;;25.35;20.27;;;27.20;93.00;;;;;;5026794;28;20014;-50
2023/03/10 00:17:11;;;;;;;22.42;20.00;;;27.20;93.10;;;;;;5026802;28;20061;-51
2023/03/10 00:19:38;;;;;;;22.55;20.08;;;27.10;93.20;;;;;;5026042;28;20021;-49
2023/03/10 00:22:05;;;;;;;21.83;19.52;;;27.10;93.20;;;;;;5026584;28;20084;-53
2023/03/10 00:24:32;;;;;;;24.13;19.40;;;27.10;93.30;;;;;;5027156;28;20076;-53
2023/03/10 00:26:58;;;;;;;22.70;20.40;;;27.10;93.40;;;;;;5026761;28;20022;-54
2023/03/10 00:29:28;;;;;;;23.95;20.52;;;27.10;93.30;;;;;;5027165;28;20022;-58
2023/03/10 00:31:54;;;;;;;23.08;19.90;;;27.10;93.30;;;;;;5026651;28;20041;-58
2023/03/10 00:34:21;;;;;;;22.33;19.95;;;27.10;93.10;;;;;;5026783;28;20018;-56
2023/03/10 00:36:52;;;;;;;21.65;19.35;;;27.10;93.20;;;;;;5026774;28;20247;-53
2023/03/10 00:39:19;;;;;;;21.75;19.45;;;27.10;93.10;;;;;;5026317;28;20037;-54
2023/03/10 00:41:47;;;;;;;20.27;17.63;;;27.00;93.00;;;;;;5025947;28;20329;-55
2023/03/10 00:44:16;;;;;;;19.00;16.77;;;27.10;93.00;;;;;;5026092;28;20038;-56
2023/03/10 00:46:43;;;;;;;18.95;16.88;;;27.00;92.90;;;;;;5026182;28;20194;-55
2023/03/10 00:49:15;;;;;;;18.23;16.30;;;27.00;92.80;;;;;;5025836;28;20018;-55
2023/03/10 00:51:41;;;;;;;;;;;27.00;92.70;;;;;;5026427;28;20091;-53
2023/03/10 00:54:08;;;;;;;17.63;15.73;;;27.00;92.70;;;;;;5026219;28;20194;-49
2023/03/10 00:56:35;;;;;;;17.45;15.70;;;27.00;92.70;;;;;;5025951;28;20053;-55
2023/03/10 00:59:02;;;;;;;20.45;16.45;;;27.00;92.70;;;;;;5026067;28;20078;-56
2023/03/10 01:01:54;;;;;;;16.58;14.25;;;27.00;92.80;;;;;;5026139;28;20018;-52
2023/03/10 01:04:20;;;;;;;16.27;14.57;;;26.90;92.60;;;;;;5024546;28;20330;-55
2023/03/10 01:06:47;;;;;;;44.13;16.05;;;27.00;92.60;;;;;;5025840;28;20021;-59
2023/03/10 01:09:14;;;;;;;27.02;14.02;;;26.90;92.60;;;;;;5025716;28;20030;-55
2023/03/10 01:11:41;;;;;;;22.98;13.93;;;26.90;92.50;;;;;;5026192;28;20026;-53
2023/03/10 01:17:17;;;;;;;18.88;12.40;;;27.00;92.60;;;;;;5026015;28;20033;-57
2023/03/10 01:19:43;;;;;;;18.02;11.65;;;26.90;92.50;;;;;;5025859;28;20030;-54
2023/03/10 01:22:14;;;;;;;18.63;11.70;;;26.90;92.40;;;;;;5025703;28;20318;-53
2023/03/10 01:24:41;;;;;;;15.80;11.32;;;27.00;92.50;;;;;;5025376;28;20040;-53
2023/03/10 01:27:21;;;;;;;15.32;11.18;;;27.00;92.40;;;;;;5025675;28;20029;-56
2023/03/10 01:29:47;;;;;;;15.25;10.65;;;27.00;92.40;;;;;;5024596;28;20030;-51
2023/03/10 01:32:14;;;;;;;17.52;10.93;;;26.90;92.20;;;;;;5025271;28;20314;-55
2023/03/10 01:34:45;;;;;;;11.60;10.27;;;26.90;92.20;;;;;;5024094;28;20148;-52
2023/03/10 01:37:12;;;;;;;15.48;10.25;;;26.90;92.00;;;;;;5025570;28;20042;-56
2023/03/10 01:39:38;;;;;;;11.07;9.82;;;26.90;92.20;;;;;;5020887;28;20033;-53
2023/03/10 01:42:05;;;;;;;15.32;10.32;;;26.70;92.30;;;;;;5022933;28;20062;-54
2023/03/10 01:44:32;;;;;;;15.95;10.57;;;26.60;92.40;;;;;;5014514;28;20026;-52
2023/03/10 01:46:59;;;;;;;13.82;10.25;;;26.50;92.50;;;;;;5023884;28;20080;-51
2023/03/10 01:49:39;;;;;;;12.52;10.18;;;26.40;92.80;;;;;;5018251;28;20317;-52
2023/03/10 01:52:22;;;;;;;11.48;9.73;;;26.40;92.50;;;;;;5023788;28;20025;-49
2023/03/10 01:55:17;;;;;;;14.18;10.98;;;26.30;92.40;;;;;;5024957;28;20045;-52
2023/03/10 01:57:53;;;;;;;10.93;9.82;;;26.30;92.70;;;;;;5022124;28;20049;-53
2023/03/10 02:00:30;;;;;;;11.27;10.10;;;26.30;92.60;;;;;;5020990;28;20035;-49
2023/03/10 02:03:06;;;;;;;11.93;10.48;;;26.20;92.60;;;;;;5006021;28;20137;-54
2023/03/10 02:09:17;;;;;;;11.77;10.60;;;26.30;92.30;;;;;;5005043;28;20226;-50
2023/03/10 02:11:46;;;;;;;11.05;9.80;;;26.50;92.10;;;;;;5005028;28;20311;-47
2023/03/10 02:14:14;;;;;;;11.23;10.13;;;26.60;91.90;;;;;;5004658;28;20089;-56
2023/03/10 02:16:40;;;;;;;11.75;9.40;;;26.60;91.70;;;;;;5007479;28;20034;-50
2023/03/10 02:19:22;;;;;;;12.43;10.48;;;26.70;91.60;;;;;;5020434;28;20068;-52
2023/03/10 02:22:05;;;;;;;12.40;10.88;;;26.70;91.40;;;;;;5016322;28;20081;-56
2023/03/10 02:24:56;;;;;;;11.43;10.00;;;26.70;91.20;;;;;;5004855;28;20029;-47
2023/03/10 02:27:49;;;;;;;14.68;10.05;;;26.80;91.10;;;;;;5005261;28;20035;-53
2023/03/10 02:30:26;;;;;;;13.07;9.50;;;26.80;91.00;;;;;;5013276;28;20029;-52
2023/03/10 02:33:03;;;;;;;11.10;8.98;;;26.80;90.70;;;;;;5005602;28;20026;-53
2023/03/10 02:35:29;;;;;;;11.25;8.57;;;26.90;90.60;;;;;;5010046;28;20093;-53
2023/03/10 02:37:56;;;;;;;11.20;8.35;;;26.90;90.80;;;;;;5015436;28;20029;-51
2023/03/10 02:40:36;;;;;;;11.07;8.75;;;26.90;90.50;;;;;;5024239;28;20222;-53
2023/03/10 02:43:23;;;;;;;10.75;8.07;;;26.90;90.40;;;;;;5023825;28;20218;-56
2023/03/10 02:45:53;;;;;;;10.98;8.43;;;26.90;90.20;;;;;;5023945;28;20038;-48
2023/03/10 02:48:25;;;;;;;11.07;7.75;;;26.90;90.20;;;;;;5024479;28;20065;-49
2023/03/10 02:50:53;;;;;;;9.73;7.68;;;26.90;90.20;;;;;;5024144;28;20318;-48
2023/03/10 02:53:23;;;;;;;12.07;8.00;;;26.90;90.20;;;;;;5023959;28;20053;-49
2023/03/10 02:55:51;;;;;;;8.73;7.50;;;26.90;90.20;;;;;;5024233;28;20037;-51
2023/03/10 02:58:19;;;;;;;9.95;7.72;;;26.90;90.00;;;;;;5023409;28;20076;-54
2023/03/10 03:00:47;;;;;;;9.20;8.02;;;26.90;90.10;;;;;;5024108;28;20034;-51
2023/03/10 03:03:15;;;;;;;9.70;7.75;;;26.90;90.00;;;;;;5026102;28;20034;-55
2023/03/10 03:05:46;;;;;;;9.15;8.13;;;26.90;89.90;;;;;;5027778;28;20028;-49
2023/03/10 03:08:13;;;;;;;10.82;8.30;;;26.90;90.00;;;;;;5028028;28;20025;-51
2023/03/10 03:10:39;;;;;;;9.38;8.48;;;26.90;90.10;;;;;;5028064;28;20088;-48
2023/03/10 03:13:06;;;;;;;11.13;8.70;;;26.90;90.00;;;;;;5026772;28;20021;-51
2023/03/10 03:15:33;;;;;;;10.50;8.80;;;26.90;90.00;;;;;;5027167;28;20034;-51
2023/03/10 03:18:04;;;;;;;11.80;9.27;;;26.90;90.00;;;;;;5026773;28;20297;-52
2023/03/10 03:20:31;;;;;;;11.63;8.85;;;26.80;89.80;;;;;;5006277;28;20242;-52
2023/03/10 03:22:59;;;;;;;11.05;9.10;;;26.80;89.90;;;;;;5015020;28;20014;-51
2023/03/10 03:25:27;;;;;;;10.80;8.50;;;26.80;89.80;;;;;;5023342;28;20056;-53
2023/03/10 03:27:54;;;;;;;11.68;8.88;;;26.80;89.70;;;;;;5022789;28;20388;-49
2023/03/10 03:30:24;;;;;;;9.63;8.57;;;26.80;89.50;;;;;;5025928;28;20045;-52
2023/03/10 03:32:52;;;;;;;12.75;8.95;;;26.80;89.80;;;;;;5026926;28;20030;-50
2023/03/10 03:35:29;;;;;;;9.85;8.05;;;26.80;89.50;;;;;;5028309;28;20072;-50
2023/03/10 03:37:55;;;;;;;11.98;8.35;;;26.80;89.40;;;;;;5027564;28;20026;-47
2023/03/10 03:40:25;;;;;;;9.52;8.52;;;26.80;89.30;;;;;;5027281;28;20034;-51
2023/03/10 03:42:53;;;;;;;9.25;8.30;;;26.80;89.10;;;;;;5019846;28;20042;-47
2023/03/10 03:45:23;;;;;;;12.35;10.00;;;26.80;89.30;;;;;;5022351;28;20025;-46
2023/03/10 03:47:50;;;;;;;10.40;9.40;;;26.80;89.10;;;;;;5027389;28;20026;-52
2023/03/10 03:50:18;;;;;;;10.43;9.10;;;26.80;89.20;;;;;;5025990;28;20057;-48
2023/03/10 03:52:46;;;;;;;11.25;9.02;;;26.80;89.00;;;;;;5027035;28;20032;-54
2023/03/10 03:55:15;;;;;;;14.90;9.32;;;26.80;89.30;;;;;;5026895;28;20034;-48
2023/03/10 03:57:43;;;;;;;9.80;8.90;;;26.80;89.20;;;;;;5026975;28;20098;-54
2023/03/10 04:00:23;;;;;;;9.82;8.77;;;26.80;89.20;;;;;;5027097;28;20376;-53
2023/03/10 04:02:50;;;;;;;9.57;8.60;;;26.80;89.70;;;;;;5027112;28;20038;-51
2023/03/10 04:05:17;;;;;;;10.38;9.18;;;26.80;89.90;;;;;;5026895;28;20021;-56
2023/03/10 04:07:44;;;;;;;9.95;8.65;;;26.80;90.00;;;;;;5027221;28;20049;-52
2023/03/10 04:10:13;;;;;;;11.23;8.90;;;26.80;90.10;;;;;;5026722;28;20030;-54
2023/03/10 04:12:40;;;;;;;9.60;8.70;;;26.70;90.10;;;;;;5027127;28;20029;-51
2023/03/10 04:15:07;;;;;;;10.93;9.35;;;26.80;90.20;;;;;;5025800;28;20042;-51
2023/03/10 04:17:34;;;;;;;11.02;9.57;;;26.80;90.30;;;;;;5026850;28;20048;-56
2023/03/10 04:20:01;;;;;;;11.73;9.45;;;26.80;90.40;;;;;;5020265;28;20097;-52
2023/03/10 04:22:28;;;;;;;9.98;8.98;;;26.80;90.40;;;;;;5007434;28;20231;-51
2023/03/10 04:24:54;;;;;;;14.57;9.55;;;26.80;90.60;;;;;;5006852;28;20065;-51
2023/03/10 04:27:22;;;;;;;11.23;9.85;;;26.80;90.60;;;;;;5007163;28;20259;-51
2023/03/10 04:29:48;;;;;;;10.18;9.27;;;26.80;90.50;;;;;;5006834;28;20084;-51
2023/03/10 04:32:15;;;;;;;11.55;9.07;;;26.80;90.50;;;;;;5006837;28;20042;-50
2023/03/10 04:34:42;;;;;;;9.88;8.85;;;26.80;90.40;;;;;;5006757;28;20381;-56
2023/03/10 04:37:09;;;;;;;10.30;9.00;;;26.70;90.20;;;;;;5006672;28;20046;-52
2023/03/10 04:39:36;;;;;;;10.40;8.85;;;26.70;90.20;;;;;;5006484;28;20234;-48
2023/03/10 04:42:03;;;;;;;9.73;8.38;;;26.70;90.30;;;;;;5006524;28;20108;-51
2023/03/10 04:44:30;;;;;;;9.85;8.25;;;26.70;90.20;;;;;;5006533;28;20038;-53
2023/03/10 04:46:56;;;;;;;11.77;8.55;;;26.70;90.20;;;;;;5006498;28;20022;-55
2023/03/10 04:49:23;;;;;;;12.13;8.23;;;26.70;90.30;;;;;;5006529;28;20022;-52
2023/03/10 04:51:49;;;;;;;9.40;8.02;;;26.70;90.40;;;;;;5016319;28;20045;-54
2023/03/10 04:54:18;;;;;;;8.88;7.93;;;26.70;90.40;;;;;;5019285;28;20023;-53
2023/03/10 04:56:45;;;;;;;8.70;7.80;;;26.70;90.40;;;;;;5006658;28;20057;-48
2023/03/10 04:59:11;;;;;;;9.68;7.93;;;26.70;90.40;;;;;;5006303;28;20049;-51
2023/03/10 05:01:38;;;;;;;9.43;8.27;;;26.70;90.40;;;;;;5014620;28;20037;-53
2023/03/10 05:04:05;;;;;;;10.15;7.97;;;26.60;90.40;;;;;;5017153;28;20086;-54
2023/03/10 05:06:32;;;;;;;11.73;8.30;;;26.60;90.40;;;;;;5025771;28;20071;-50
2023/03/10 05:09:00;;;;;;;8.85;7.78;;;26.60;90.60;;;;;;5025642;28;20034;-53
2023/03/10 05:11:29;;;;;;;11.60;8.30;;;26.70;90.60;;;;;;5025607;28;20304;-53
2023/03/10 05:13:55;;;;;;;9.98;7.93;;;26.60;90.50;;;;;;5025636;28;20093;-52
2023/03/10 05:16:23;;;;;;;8.90;7.78;;;26.60;90.50;;;;;;5025371;28;20029;-46
2023/03/10 05:18:49;;;;;;;10.02;8.30;;;26.60;90.60;;;;;;5025572;28;20034;-54
2023/03/10 05:21:16;;;;;;;9.13;8.05;;;26.60;90.70;;;;;;5025366;28;20060;-54
2023/03/10 05:23:42;;;;;;;9.85;7.43;;;26.60;90.60;;;;;;5025231;28;20037;-49
2023/03/10 05:26:10;;;;;;;7.95;7.15;;;26.60;90.80;;;;;;5025327;28;20095;-53
2023/03/10 05:28:37;;;;;;;8.18;7.35;;;26.60;90.70;;;;;;5025585;28;20051;-56
2023/03/10 05:31:15;;;;;;;8.50;7.43;;;26.60;90.60;;;;;;5025235;28;20187;-54
2023/03/10 05:33:42;;;;;;;8.18;7.38;;;26.60;90.60;;;;;;5025287;28;20033;-53
2023/03/10 05:36:11;;;;;;;9.35;7.22;;;26.60;90.50;;;;;;5025144;28;20321;-55
2023/03/10 05:38:38;;;;;;;7.85;6.85;;;26.60;90.60;;;;;;5025043;28;20113;-53
2023/03/10 05:41:09;;;;;;;7.97;6.80;;;26.60;90.50;;;;;;5024835;28;20032;-51
2023/03/10 05:43:36;;;;;;;11.50;6.95;;;26.60;90.40;;;;;;5025265;28;20043;-52
2023/03/10 05:46:03;;;;;;;7.53;6.80;;;26.60;90.30;;;;;;5025051;28;20026;-50
2023/03/10 05:48:30;;;;;;;7.90;6.57;;;26.60;90.30;;;;;;5025531;28;20183;-54
2023/03/10 05:51:02;;;;;;;7.95;6.53;;;26.60;90.10;;;;;;5024883;28;20037;-50
2023/03/10 05:53:29;;;;;;;8.55;6.93;;;26.60;90.10;;;;;;5025407;28;20025;-49
2023/03/10 05:55:56;;;;;;;6.85;5.72;;;26.60;90.00;;;;;;5024896;28;20034;-55
2023/03/10 05:58:24;;;;;;;7.55;6.78;;;26.60;90.00;;;;;;5025923;28;20029;-56
2023/03/10 06:00:52;;;;;;;8.18;7.00;;;26.60;89.90;;;;;;5024826;28;20036;-46
2023/03/10 06:03:19;;;;;;;8.00;6.20;;;26.60;89.90;;;;;;5025087;28;20068;-58
2023/03/10 06:05:45;;;;;;;7.28;6.60;;;26.60;90.00;;;;;;5024609;28;20032;-55
2023/03/10 06:08:12;;;;;;;7.78;6.93;;;26.60;90.00;;;;;;5025106;28;20029;-52
2023/03/10 06:10:39;;;;;;;8.63;7.00;;;26.60;90.10;;;;;;5024716;28;20030;-53
2023/03/10 06:13:06;;;;;;;8.98;7.25;;;26.60;90.20;;;;;;5024845;28;20022;-58
2023/03/10 06:15:32;;;;;;;7.55;6.85;;;26.50;90.20;;;;;;5024535;28;20038;-52
2023/03/10 06:17:59;;;;;;;9.88;7.10;;;26.50;90.20;;;;;;5024859;28;20306;-52
2023/03/10 06:20:26;;;;;;;7.90;7.18;;;26.60;90.30;;;;;;5024349;28;20041;-53
2023/03/10 06:22:53;;;;;;;8.48;7.35;;;26.50;90.20;;;;;;5024276;28;20028;-54
2023/03/10 06:25:20;;;;;;;9.93;7.43;;;26.50;90.20;;;;;;5024469;28;20049;-49
2023/03/10 06:27:46;;;;;;;9.77;7.65;;;26.50;90.20;;;;;;5024676;28;20076;-50
2023/03/10 06:30:14;;;;;;;9.73;7.82;;;26.60;90.20;;;;;;5024359;28;20014;-50
2023/03/10 06:32:41;;;;;;;9.10;8.20;;;26.60;90.20;;;;;;5024549;28;20068;-52
2023/03/10 06:35:13;;;;;;;9.30;7.80;;;26.60;90.30;;;;;;5024205;28;20022;-51
2023/03/10 06:37:40;;;;;;;8.57;7.80;;;26.50;90.40;;;;;;5023728;28;20344;-55
2023/03/10 06:40:11;;;;;;;12.98;8.82;;;26.50;90.40;;;;;;5024435;28;20037;-52
2023/03/10 06:42:39;;;;;;;8.93;8.07;;;26.50;90.50;;;;;;5024397;28;20058;-52
2023/03/10 06:45:07;;;;;;;10.18;8.85;;;26.50;90.40;;;;;;5024123;28;20045;-52
2023/03/10 06:47:34;;;;;;;11.43;8.13;;;26.50;90.50;;;;;;5024597;28;20044;-53
2023/03/10 06:50:02;;;;;;;9.27;8.40;;;26.40;90.50;;;;;;5023978;28;20025;-52
2023/03/10 06:52:28;;;;;;;9.05;8.13;;;26.50;90.50;;;;;;5024250;28;20029;-52
2023/03/10 06:54:55;;;;;;;11.98;9.30;;;26.40;90.60;;;;;;5024310;28;20030;-51
2023/03/10 06:57:21;;;;;;;9.52;8.63;;;26.40;90.60;;;;;;5024123;28;20085;-52
2023/03/10 06:59:48;;;;;;;8.95;8.00;;;26.40;90.80;;;;;;5023974;28;20100;-49
2023/03/10 07:02:14;;;;;;;12.13;8.55;;;26.40;90.90;;;;;;5024260;28;20029;-49
2023/03/10 07:04:41;;;;;;;11.27;8.73;;;26.30;90.90;;;;;;5023756;28;20100;-46
2023/03/10 07:07:08;;;;;;;12.98;8.77;;;26.30;91.00;;;;;;5023895;28;20025;-49
2023/03/10 07:09:34;;;;;;;12.80;8.77;;;26.30;91.00;;;;;;5023971;28;20210;-50
2023/03/10 07:12:01;;;;;;;13.10;8.90;;;26.30;91.10;;;;;;5023897;28;20202;-53
2023/03/10 07:14:28;;;;;;;9.25;8.27;;;26.30;91.20;;;;;;5023883;28;20018;-52
2023/03/10 07:16:55;;;;;;;13.10;8.48;;;26.30;91.20;;;;;;5024019;28;20030;-46
2023/03/10 07:19:22;;;;;;;14.55;8.50;;;26.30;91.20;;;;;;5023659;28;20334;-52
2023/03/10 07:21:48;;;;;;;11.93;8.85;;;26.30;91.20;;;;;;5023918;28;20032;-52
2023/03/10 07:24:16;;;;;;;18.10;9.07;;;26.30;91.30;;;;;;5023670;28;20048;-52
2023/03/10 07:26:43;;;;;;;14.57;8.90;;;26.30;91.50;;;;;;5023667;28;20045;-52
2023/03/10 07:29:09;;;;;;;17.52;9.18;;;26.30;91.50;;;;;;5023799;28;20178;-48
2023/03/10 07:31:36;;;;;;;19.05;9.48;;;26.20;91.50;;;;;;5023748;28;20045;-54
2023/03/10 07:34:03;;;;;;;10.25;8.93;;;26.20;91.60;;;;;;5023709;28;20072;-54
2023/03/10 07:36:29;;;;;;;15.20;8.77;;;26.20;91.70;;;;;;5023574;28;20085;-58
2023/03/10 07:38:56;;;;;;;15.10;8.95;;;26.30;91.70;;;;;;5023563;28;20093;-46
2023/03/10 07:41:23;;;;;;;11.02;8.73;;;26.20;91.80;;;;;;5023555;28;20145;-48
2023/03/10 07:43:53;;;;;;;11.45;8.48;;;26.20;92.00;;;;;;5023530;28;20051;-48
2023/03/10 07:46:20;;;;;;;16.25;9.43;;;26.20;91.80;;;;;;5023561;28;20063;-53
2023/03/10 07:48:47;;;;;;;12.10;8.63;;;26.20;91.70;;;;;;5023550;28;20034;-48
2023/03/10 07:51:14;;;;;;;9.32;8.25;;;26.30;91.70;;;;;;5026706;28;20101;-54
2023/03/10 07:53:41;;;;;;;12.68;8.30;;;26.20;91.70;;;;;;5027132;28;20040;-54
2023/03/10 07:56:10;;;;;;;10.38;7.85;;;26.20;91.70;;;;;;5027096;28;20038;-55
2023/03/10 07:58:37;;;;;;;11.73;8.60;;;26.20;91.70;;;;;;5027290;28;20326;-49
2023/03/10 08:01:04;;;;;;;14.55;8.60;;;26.20;91.80;;;;;;5027096;28;20080;-54
2023/03/10 08:03:32;;;;;;;10.93;7.65;;;26.20;91.90;;;;;;5027334;28;20064;-58
2023/03/10 08:06:00;;;;;;;13.10;8.55;;;26.20;91.90;;;;;;5026911;28;20314;-51
2023/03/10 08:08:27;;;;;;;10.60;7.75;;;26.20;91.90;;;;;;5027385;28;20034;-54
2023/03/10 08:11:06;;;;;;;10.32;7.93;;;26.20;92.00;;;;;;5025836;28;20028;-52
2023/03/10 08:13:33;;;;;;;13.18;7.90;;;26.20;92.00;;;;;;5027301;28;20041;-52
2023/03/10 08:16:00;;;;;;;8.48;7.63;;;26.20;92.00;;;;;;5026904;28;20076;-52
2023/03/10 08:18:28;;;;;;;15.27;7.32;;;26.20;91.90;;;;;;5027043;28;20141;-59
2023/03/10 08:20:55;;;;;;;9.43;7.63;;;26.20;91.90;;;;;;5026649;28;20276;-55
2023/03/10 08:23:23;;;;;;;7.85;7.00;;;26.20;91.90;;;;;;5027021;28;20022;-49
2023/03/10 08:25:50;;;;;;;8.77;6.55;;;26.10;91.80;;;;;;5026426;28;20048;-48
2023/03/10 08:28:16;;;;;;;8.63;6.97;;;26.20;91.90;;;;;;5026982;28;20199;-48
2023/03/10 08:30:43;;;;;;;13.02;6.97;;;26.20;91.90;;;;;;5026513;28;20038;-54
2023/03/10 08:33:10;;;;;;;8.45;7.07;;;26.20;91.90;;;;;;5026687;28;20045;-47
2023/03/10 08:35:37;;;;;;;10.10;7.10;;;26.10;91.90;;;;;;5026624;28;20071;-48
2023/03/10 08:38:04;;;;;;;9.07;7.03;;;26.10;91.90;;;;;;5026200;28;20037;-52
2023/03/10 08:40:31;;;;;;;10.13;6.47;;;26.10;91.90;;;;;;5026062;28;20022;-46
2023/03/10 08:42:58;;;;;;;7.57;6.28;;;26.10;91.80;;;;;;5026411;28;20060;-51
2023/03/10 08:45:25;;;;;;;8.23;6.28;;;26.20;91.80;;;;;;5026164;28;20041;-47
2023/03/10 08:47:51;;;;;;;9.55;6.45;;;26.10;91.80;;;;;;5026451;28;20107;-53
2023/03/10 08:50:18;;;;;;;7.82;6.45;;;26.10;91.80;;;;;;5026131;28;20262;-56
2023/03/10 08:52:44;;;;;;;8.90;6.47;;;26.10;91.80;;;;;;5026420;28;20017;-56
2023/03/10 08:55:11;;;;;;;9.60;5.85;;;26.10;91.80;;;;;;5026015;28;20312;-51
2023/03/10 08:57:38;;;;;;;9.30;6.32;;;26.10;91.90;;;;;;5025924;28;20210;-48
2023/03/10 09:00:05;;;;;;;7.38;6.55;;;26.10;91.80;;;;;;5025657;28;20034;-51
2023/03/10 09:02:32;;;;;;;9.13;6.32;;;26.20;91.80;;;;;;5025776;28;20136;-53
2023/03/10 09:04:59;;;;;;;9.23;6.63;;;26.10;91.70;;;;;;5025860;28;20089;-50
2023/03/10 09:07:25;;;;;;;7.18;6.47;;;26.10;91.60;;;;;;5025900;28;20026;-49
2023/03/10 09:09:52;;;;;;;10.75;6.88;;;26.10;91.60;;;;;;5025923;28;20044;-50
2023/03/10 09:12:19;;;;;;;8.63;6.43;;;26.10;91.60;;;;;;5025945;28;20105;-52
2023/03/10 09:14:46;;;;;;;10.85;6.82;;;26.10;91.60;;;;;;5025649;28;20026;-52
2023/03/10 09:17:13;;;;;;;9.23;6.43;;;26.10;91.60;;;;;;5025894;28;20045;-53
2023/03/10 09:19:39;;;;;;;11.15;6.63;;;26.10;91.70;;;;;;5025281;28;20337;-52
2023/03/10 09:22:06;;;;;;;7.45;6.10;;;26.10;91.60;;;;;;5025608;28;20076;-54
2023/03/10 09:24:32;;;;;;;9.70;7.00;;;26.10;91.60;;;;;;5025399;28;20061;-50
2023/03/10 09:26:59;;;;;;;8.65;7.10;;;26.10;91.50;;;;;;5025442;28;20022;-52
2023/03/10 09:29:26;;;;;;;8.38;6.93;;;26.10;91.50;;;;;;5025329;28;20026;-54
2023/03/10 09:31:52;;;;;;;7.50;6.40;;;26.20;91.80;;;;;;5025518;28;20034;-52
2023/03/10 09:34:19;;;;;;;9.75;7.13;;;26.10;91.50;;;;;;5025164;28;20322;-53
2023/03/10 09:36:45;;;;;;;9.40;6.82;;;26.10;91.60;;;;;;5025052;28;20041;-51
2023/03/10 09:39:12;;;;;;;9.05;7.38;;;26.10;91.70;;;;;;5025222;28;20041;-49
2023/03/10 09:42:14;;;;;;;9.50;7.22;;;26.10;91.90;;;;;;5024864;28;20113;-56
2023/03/10 09:44:58;;;;;;;9.07;7.10;;;26.10;91.90;;;;;;4964778;29;20363;-54
2023/03/10 09:47:47;;;;;;;9.55;7.75;;;26.00;92.10;;;;;;5020517;28;20329;-50
2023/03/10 09:50:47;;;;;;;13.15;8.13;;;26.00;92.10;;;;;;4994661;28;20041;-56
2023/03/10 09:53:38;;;;;;;11.23;7.95;;;26.00;92.20;;;;;;5025121;28;20068;-50
2023/03/10 09:56:32;;;;;;;12.00;8.73;;;26.00;92.30;;;;;;5024734;28;20037;-49
2023/03/10 09:59:23;;;;;;;11.63;7.72;;;26.00;92.40;;;;;;5019140;28;20034;-57
2023/03/10 10:01:52;;;;;;;10.45;7.85;;;26.00;92.40;;;;;;5024805;28;20310;-51
2023/03/10 10:04:39;;;;;;;15.13;8.45;;;26.00;92.40;;;;;;5024659;28;20030;-49
2023/03/10 10:07:15;;;;;;;10.05;8.75;;;25.90;92.50;;;;;;5024955;28;20026;-47
2023/03/10 10:10:04;;;;;;;12.32;8.77;;;25.90;92.50;;;;;;5024827;28;20030;-50
2023/03/10 10:12:31;;;;;;;10.25;8.60;;;26.00;92.60;;;;;;5024118;28;20033;-53
2023/03/10 10:15:12;;;;;;;12.27;9.40;;;25.90;92.50;;;;;;5024633;28;20037;-52
2023/03/10 10:17:48;;;;;;;11.07;9.27;;;26.00;92.70;;;;;;5024850;28;20085;-53
2023/03/10 10:20:22;;;;;;;14.10;9.43;;;26.00;92.80;;;;;;5024683;28;20034;-49
2023/03/10 10:22:49;;;;;;;10.95;9.63;;;26.00;92.80;;;;;;5024301;28;20097;-50
2023/03/10 10:25:29;;;;;;;14.32;9.45;;;25.90;92.80;;;;;;5024332;28;20273;-47
2023/03/10 10:27:57;;;;;;;11.32;9.40;;;25.90;92.80;;;;;;5024597;28;20194;-52
2023/03/10 10:30:38;;;;;;;10.70;9.55;;;26.00;92.90;;;;;;5024378;28;20034;-51
2023/03/10 10:33:11;;;;;;;13.00;9.35;;;25.90;92.90;;;;;;5019711;28;20153;-55
2023/03/10 10:36:01;;;;;;;15.80;10.07;;;25.90;92.90;;;;;;5024334;28;20037;-46
2023/03/10 10:38:30;;;;;;;11.95;9.32;;;25.90;93.00;;;;;;5024736;28;20034;-48
2023/03/10 10:41:02;;;;;;;13.50;9.65;;;25.90;93.10;;;;;;5024397;28;20033;-53
2023/03/10 10:43:29;;;;;;;11.88;9.65;;;25.90;93.20;;;;;;5024706;28;20055;-51
2023/03/10 10:46:16;;;;;;;17.50;10.10;;;25.90;93.20;;;;;;5024069;28;20371;-51
2023/03/10 10:48:46;;;;;;;14.68;10.85;;;25.90;93.30;;;;;;5024058;28;20036;-53
2023/03/10 10:51:31;;;;;;;11.45;10.25;;;25.90;93.40;;;;;;5007386;28;20319;-50
2023/03/10 10:54:00;;;;;;;12.57;10.35;;;25.90;93.30;;;;;;5004458;28;20041;-52
2023/03/10 10:56:27;;;;;;;13.68;10.70;;;25.90;93.40;;;;;;5004616;28;20040;-56
2023/03/10 10:59:19;;;;;;;12.35;9.85;;;25.90;93.40;;;;;;5004386;28;20035;-52
2023/03/10 11:02:08;;;;;;;15.23;10.65;;;25.90;93.40;;;;;;5017967;28;20041;-49
2023/03/10 11:04:43;;;;;;;14.02;10.52;;;25.90;93.40;;;;;;4997070;28;20050;-46
2023/03/10 11:07:26;;;;;;;16.33;10.70;;;25.90;93.50;;;;;;5019387;28;20057;-51
2023/03/10 11:09:57;;;;;;;12.82;11.43;;;25.90;93.40;;;;;;5023769;28;20037;-53
2023/03/10 11:12:33;;;;;;;12.50;11.20;;;25.90;93.40;;;;;;5016120;28;20184;-50
2023/03/10 11:15:10;;;;;;;14.10;12.02;;;25.90;93.40;;;;;;5015057;28;20094;-52
2023/03/10 11:17:58;;;;;;;15.05;12.63;;;25.90;93.40;;;;;;5020613;28;20030;-51
2023/03/10 11:21:04;;;;;;;14.88;12.18;;;25.90;93.40;;;;;;5015392;28;20021;-51
2023/03/10 11:24:01;;;;;;;16.67;12.35;;;25.90;93.50;;;;;;5024736;28;20227;-47
2023/03/10 11:26:59;;;;;;;15.10;13.30;;;25.90;93.60;;;;;;5027554;28;20100;-55
2023/03/10 11:29:50;;;;;;;25.70;14.38;;;25.90;93.50;;;;;;5028085;28;20345;-51
2023/03/10 11:32:28;;;;;;;21.23;16.30;;;26.00;93.60;;;;;;5026294;28;20030;-53
2023/03/10 11:34:54;;;;;;;23.60;20.13;;;25.80;94.00;;;;;;5027280;28;20105;-52
2023/03/10 11:38:05;;;;;;;29.38;21.17;;;25.80;93.90;;;;;;5026653;28;20089;-53
2023/03/10 11:40:51;;;;;;;22.88;18.42;;;25.90;93.80;;;;;;4967012;29;20042;-49
2023/03/10 11:43:29;;;;;;;19.85;17.75;;;25.90;93.70;;;;;;5027474;28;20041;-50
2023/03/10 11:46:00;;;;;;;23.17;17.65;;;25.90;93.80;;;;;;5025937;28;20115;-51
2023/03/10 11:48:41;;;;;;;21.50;18.02;;;25.90;93.70;;;;;;5026313;28;20017;-52
2023/03/10 11:51:28;;;;;;;21.53;18.73;;;25.90;93.70;;;;;;5025429;28;20034;-53
2023/03/10 11:53:58;;;;;;;23.05;19.65;;;25.90;93.70;;;;;;5024327;28;20337;-54
2023/03/10 11:56:27;;;;;;;24.30;19.75;;;25.90;93.70;;;;;;5025525;28;20037;-54
2023/03/10 11:59:14;;;;;;;28.50;20.23;;;25.90;93.70;;;;;;5026520;28;20026;-57
2023/03/10 12:01:50;;;;;;;24.23;19.35;;;26.00;93.70;;;;;;5026291;28;20107;-53
2023/03/10 12:04:26;;;;;;;21.75;19.45;;;25.90;93.70;;;;;;5027034;28;20222;-55
2023/03/10 12:07:14;;;;;;;25.55;18.23;;;26.00;93.80;;;;;;5026773;28;20041;-54
2023/03/10 12:09:50;;;;;;;20.67;18.40;;;26.00;93.80;;;;;;5027110;28;20206;-56
2023/03/10 12:12:25;;;;;;;20.35;18.33;;;26.00;93.80;;;;;;5027172;28;20048;-56
2023/03/10 12:14:56;;;;;;;24.17;18.77;;;26.00;93.70;;;;;;5026896;28;20237;-56
2023/03/10 12:17:22;;;;;;;22.83;18.48;;;26.00;93.70;;;;;;5027291;28;20063;-57
2023/03/10 12:20:10;;;;;;;20.90;18.23;;;26.10;93.70;;;;;;5025663;28;20329;-58
2023/03/10 12:22:58;;;;;;;21.33;19.05;;;26.10;93.70;;;;;;5026847;28;20033;-53
2023/03/10 12:25:36;;;;;;;21.58;18.55;;;26.10;93.50;;;;;;5026622;28;20030;-52
2023/03/10 12:28:27;;;;;;;21.70;18.23;;;26.10;93.60;;;;;;5026887;28;20435;-53
2023/03/10 12:30:55;;;;;;;23.60;17.92;;;26.20;93.50;;;;;;5026339;28;20018;-50
2023/03/10 12:33:32;;;;;;;20.90;17.77;;;26.10;93.50;;;;;;5026738;28;20037;-53
2023/03/10 12:36:04;;;;;;;19.40;17.35;;;26.20;93.40;;;;;;5025516;28;20029;-54
2023/03/10 12:38:50;;;;;;;22.38;18.15;;;26.20;93.10;;;;;;5026662;28;20034;-57
2023/03/10 12:41:45;;;;;;;19.73;17.35;;;26.30;93.30;;;;;;5026166;28;20140;-53
2023/03/10 12:44:49;;;;;;;19.08;17.08;;;26.30;93.20;;;;;;5024262;28;20038;-54
2023/03/10 12:47:32;;;;;;;19.67;17.42;;;26.30;93.10;;;;;;5026421;28;20048;-54
2023/03/10 12:50:16;;;;;;;18.70;16.15;;;26.30;93.40;;;;;;5026054;28;20104;-54
2023/03/10 12:52:43;;;;;;;19.88;17.20;;;26.30;93.10;;;;;;5026165;28;20014;-53
2023/03/10 12:55:24;;;;;;;19.05;16.65;;;26.30;93.20;;;;;;5025878;28;20042;-54
2023/03/10 12:58:08;;;;;;;18.85;16.85;;;26.40;93.10;;;;;;5026411;28;20018;-57
2023/03/10 13:00:39;;;;;;;18.17;16.27;;;26.40;93.00;;;;;;5025753;28;20037;-57
2023/03/10 13:03:32;;;;;;;18.10;15.70;;;26.40;93.00;;;;;;5026394;28;20022;-57
2023/03/10 13:06:03;;;;;;;19.63;16.67;;;26.50;93.00;;;;;;5025813;28;20401;-50